createdAt,value
2019-04-14T00:01:15.294Z,34.00
2019-04-14T00:02:33.656Z,35.75
2019-04-14T00:03:58.804Z,36.30
2019-04-14T00:05:03.988Z,34.45
2019-04-14T00:06:06.997Z,39.13
2019-04-14T00:07:10.205Z,36.55
2019-04-14T00:08:13.359Z,36.68
2019-04-14T00:09:18.383Z,36.83
2019-04-14T00:10:22.453Z,34.83
2019-04-14T00:11:25.893Z,35.95
2019-04-14T00:12:29.486Z,36.63
2019-04-14T00:13:32.812Z,37.67
2019-04-14T00:14:35.792Z,34.92
2019-04-14T00:15:42.708Z,34.48
2019-04-14T00:16:42.910Z,36.70
2019-04-14T00:17:45.684Z,35.95
2019-04-14T00:18:49.102Z,36.25
2019-04-14T00:19:52.426Z,34.40
2019-04-14T00:20:55.535Z,34.70
2019-04-14T00:22:00.858Z,34.65
2019-04-14T00:23:04.384Z,35.45
2019-04-14T00:24:07.342Z,36.23
2019-04-14T00:25:10.777Z,36.05
2019-04-14T00:26:27.212Z,36.98
2019-04-14T00:27:30.270Z,36.00
2019-04-14T00:28:33.603Z,35.60
2019-04-14T00:29:37.142Z,34.35
2019-04-14T00:30:40.500Z,35.23
2019-04-14T00:31:43.342Z,35.58
2019-04-14T00:32:50.824Z,36.38
2019-04-14T00:33:54.383Z,35.58
2019-04-14T00:35:23.094Z,35.75
2019-04-14T00:36:39.778Z,36.45
2019-04-14T00:38:17.410Z,34.15
2019-04-14T00:39:24.950Z,35.40
2019-04-14T00:40:34.589Z,35.73
2019-04-14T00:41:50.432Z,37.00
2019-04-14T00:42:58.079Z,35.90
2019-04-14T00:44:05.768Z,35.88
2019-04-14T00:45:15.488Z,34.43
2019-04-14T00:46:23.194Z,34.95
2019-04-14T00:47:29.449Z,35.08
2019-04-14T00:48:32.223Z,34.83
2019-04-14T00:49:35.429Z,35.23
2019-04-14T00:50:38.779Z,35.65
2019-04-14T00:51:42.437Z,36.00
2019-04-14T00:52:45.818Z,35.45
2019-04-14T00:53:49.148Z,35.08
2019-04-14T00:54:52.132Z,34.70
2019-04-14T00:55:55.358Z,38.40
2019-04-14T00:56:58.461Z,38.45
2019-04-14T00:58:01.645Z,35.85
2019-04-14T00:59:05.008Z,38.13
2019-04-14T01:00:08.296Z,40.38
2019-04-14T01:01:11.210Z,39.42
2019-04-14T01:02:14.560Z,37.60
2019-04-14T01:03:17.739Z,40.12
2019-04-14T01:04:20.861Z,38.25
2019-04-14T01:05:24.127Z,40.43
2019-04-14T01:06:27.311Z,39.55
2019-04-14T01:07:30.534Z,40.40
2019-04-14T01:08:33.496Z,38.60
2019-04-14T01:09:36.958Z,40.85
2019-04-14T01:10:39.561Z,39.08
2019-04-14T01:11:42.257Z,41.18
2019-04-14T01:12:45.306Z,42.05
2019-04-14T01:13:48.639Z,40.43
2019-04-14T01:14:51.802Z,39.73
2019-04-14T01:16:01.861Z,39.63
2019-04-14T01:16:58.932Z,40.50
2019-04-14T01:18:01.610Z,42.05
2019-04-14T01:19:04.783Z,41.63
2019-04-14T01:20:07.918Z,39.33
2019-04-14T01:21:11.025Z,40.12
2019-04-14T01:22:14.170Z,39.18
2019-04-14T01:23:17.236Z,37.28
2019-04-14T01:24:20.677Z,39.50
2019-04-14T01:25:23.916Z,53.02
2019-04-14T01:26:26.776Z,40.90
2019-04-14T01:27:29.924Z,39.85
2019-04-14T01:28:32.997Z,38.55
2019-04-14T01:29:36.271Z,39.30
2019-04-14T01:30:39.448Z,39.10
2019-04-14T01:31:42.495Z,39.98
2019-04-14T01:32:45.767Z,42.48
2019-04-14T01:33:49.128Z,41.02
2019-04-14T01:34:53.868Z,41.18
2019-04-14T01:35:57.335Z,40.38
2019-04-14T01:37:00.798Z,41.70
2019-04-14T01:38:03.799Z,41.95
2019-04-14T01:39:06.957Z,41.83
2019-04-14T01:40:09.978Z,40.55
2019-04-14T01:41:12.847Z,42.60
2019-04-14T01:42:15.897Z,41.23
2019-04-14T01:43:18.913Z,41.42
2019-04-14T01:44:22.091Z,41.10
2019-04-14T01:45:25.351Z,41.13
2019-04-14T01:46:30.940Z,40.78
2019-04-14T01:47:33.421Z,41.33
2019-04-14T01:48:36.697Z,40.98
2019-04-14T01:49:39.719Z,42.27
2019-04-14T01:51:02.710Z,41.90
2019-04-14T01:52:25.313Z,40.83
2019-04-14T01:53:44.562Z,42.05
2019-04-14T01:55:15.473Z,40.23
2019-04-14T01:56:25.542Z,40.73
2019-04-14T01:57:35.548Z,40.92
2019-04-14T01:58:44.676Z,42.08
2019-04-14T01:59:48.259Z,43.42
2019-04-14T02:01:10.563Z,43.02
2019-04-14T02:02:16.416Z,42.25
2019-04-14T02:03:19.511Z,42.50
2019-04-14T02:04:22.426Z,42.58
2019-04-14T02:05:25.698Z,44.23
2019-04-14T02:06:28.812Z,41.88
2019-04-14T02:07:31.897Z,42.15
2019-04-14T02:08:35.165Z,42.75
2019-04-14T02:09:37.946Z,42.78
2019-04-14T02:10:41.277Z,40.88
2019-04-14T02:11:44.533Z,41.33
2019-04-14T02:12:47.413Z,41.42
2019-04-14T02:13:50.859Z,40.20
2019-04-14T02:14:54.092Z,41.42
2019-04-14T02:15:57.343Z,41.88
2019-04-14T02:17:02.522Z,42.25
2019-04-14T02:18:05.605Z,40.88
2019-04-14T02:19:08.907Z,43.63
2019-04-14T02:20:12.117Z,43.70
2019-04-14T02:21:14.944Z,42.45
2019-04-14T02:22:18.152Z,40.83
2019-04-14T02:23:21.489Z,43.58
2019-04-14T02:24:24.240Z,42.90
2019-04-14T02:25:27.517Z,41.30
2019-04-14T02:26:30.951Z,42.10
2019-04-14T02:27:33.960Z,43.40
2019-04-14T02:28:37.558Z,43.00
2019-04-14T02:29:40.774Z,40.33
2019-04-14T02:30:55.982Z,41.83
2019-04-14T02:32:17.911Z,43.05
2019-04-14T02:33:26.074Z,44.33
2019-04-14T02:34:29.300Z,43.33
2019-04-14T02:35:35.142Z,42.00
2019-04-14T02:36:36.172Z,40.28
2019-04-14T02:37:40.325Z,41.37
2019-04-14T02:39:01.829Z,43.08
2019-04-14T02:39:54.035Z,40.35
2019-04-14T02:40:56.027Z,39.08
2019-04-14T02:42:54.265Z,41.20
2019-04-14T02:44:09.492Z,40.03
2019-04-14T02:45:12.685Z,42.75
2019-04-14T02:46:12.216Z,41.80
2019-04-14T02:47:37.081Z,41.77
2019-04-14T02:49:29.011Z,42.65
2019-04-14T02:50:51.992Z,41.35
2019-04-14T02:51:33.556Z,42.62
2019-04-14T02:52:43.124Z,42.80
2019-04-14T02:53:51.376Z,42.13
2019-04-14T02:55:59.479Z,43.05
2019-04-14T02:57:01.855Z,42.25
2019-04-14T02:58:10.468Z,41.75
2019-04-14T02:59:05.778Z,39.92
2019-04-14T03:00:16.718Z,42.45
2019-04-14T03:01:31.281Z,42.15
2019-04-14T03:02:32.342Z,43.05
2019-04-14T03:03:31.270Z,41.40
2019-04-14T03:04:27.656Z,42.38
2019-04-14T03:05:37.203Z,42.20
2019-04-14T03:06:41.417Z,41.88
2019-04-14T03:07:46.270Z,42.98
2019-04-14T03:08:51.233Z,41.98
2019-04-14T03:10:01.110Z,42.15
2019-04-14T03:10:55.868Z,40.33
2019-04-14T03:12:01.357Z,42.17
2019-04-14T03:13:21.170Z,41.70
2019-04-14T03:15:16.980Z,42.08
2019-04-14T03:16:24.070Z,40.43
2019-04-14T03:18:16.554Z,40.70
2019-04-14T03:19:25.047Z,41.88
2019-04-14T03:20:39.918Z,41.18
2019-04-14T03:23:06.053Z,39.75
2019-04-14T03:24:33.903Z,43.10
2019-04-14T03:25:46.885Z,41.15
2019-04-14T03:27:22.701Z,40.78
2019-04-14T03:28:33.619Z,40.38
2019-04-14T03:29:34.840Z,41.83
2019-04-14T03:35:30.183Z,41.45
2019-04-14T03:37:39.513Z,40.85
2019-04-14T03:38:18.375Z,39.67
2019-04-14T03:39:23.330Z,40.88
2019-04-14T03:40:28.066Z,38.58
2019-04-14T03:41:29.260Z,39.30
2019-04-14T03:43:36.868Z,38.60
2019-04-14T03:44:59.019Z,38.35
2019-04-14T03:45:56.970Z,39.55
2019-04-14T03:48:16.984Z,38.45
2019-04-14T03:49:31.569Z,38.98
2019-04-14T03:50:06.014Z,38.67
2019-04-14T03:52:13.080Z,38.78
2019-04-14T03:53:22.190Z,37.65
2019-04-14T03:54:17.141Z,37.40
2019-04-14T03:55:17.925Z,39.08
2019-04-14T03:56:46.574Z,37.83
2019-04-14T03:57:49.771Z,35.65
2019-04-14T03:58:53.190Z,37.03
2019-04-14T03:59:56.385Z,37.10
2019-04-14T04:00:59.768Z,34.27
2019-04-14T04:02:03.202Z,36.58
2019-04-14T04:03:06.363Z,35.13
2019-04-14T04:04:09.667Z,35.52
2019-04-14T04:05:12.797Z,34.20
2019-04-14T04:06:15.993Z,36.33
2019-04-14T04:07:19.228Z,35.15
2019-04-14T04:08:22.365Z,35.80
2019-04-14T04:09:37.333Z,36.03
2019-04-14T04:10:40.481Z,34.33
2019-04-14T04:11:43.413Z,34.83
2019-04-14T04:12:46.550Z,35.38
2019-04-14T04:13:49.928Z,36.40
2019-04-14T04:14:53.225Z,34.88
2019-04-14T04:16:11.539Z,34.78
2019-04-14T04:17:21.233Z,35.80
2019-04-14T04:18:26.560Z,35.25
2019-04-14T04:19:38.553Z,35.08
2019-04-14T04:20:58.900Z,34.65
2019-04-14T04:22:21.559Z,34.40
2019-04-14T04:23:40.294Z,33.18
2019-04-14T04:24:47.572Z,33.90
2019-04-14T04:26:12.669Z,34.75
2019-04-14T04:27:33.013Z,35.65
2019-04-14T04:29:01.160Z,35.68
2019-04-14T04:30:10.690Z,36.00
2019-04-14T04:31:30.977Z,34.05
2019-04-14T04:32:51.594Z,34.03
2019-04-14T04:34:04.037Z,33.48
2019-04-14T04:35:17.496Z,34.38
2019-04-14T04:36:31.311Z,35.30
2019-04-14T04:37:39.013Z,35.08
2019-04-14T04:38:51.344Z,35.28
2019-04-14T04:39:54.600Z,36.42
2019-04-14T04:40:57.299Z,36.13
2019-04-14T04:42:00.394Z,36.93
2019-04-14T04:43:03.825Z,36.15
2019-04-14T04:44:07.199Z,35.75
2019-04-14T04:45:10.396Z,33.63
2019-04-14T04:46:13.411Z,35.73
2019-04-14T04:47:16.669Z,36.08
2019-04-14T04:48:19.646Z,36.03
2019-04-14T04:49:25.774Z,35.88
2019-04-14T04:50:28.179Z,34.65
2019-04-14T04:51:31.117Z,36.65
2019-04-14T04:52:34.359Z,35.00
2019-04-14T04:53:37.633Z,37.20
2019-04-14T04:54:40.674Z,34.67
2019-04-14T04:55:43.897Z,35.48
2019-04-14T04:56:47.258Z,36.63
2019-04-14T04:57:50.266Z,34.27
2019-04-14T04:58:52.929Z,36.33
2019-04-14T04:59:56.149Z,36.42
2019-04-14T05:00:59.584Z,34.53
2019-04-14T05:02:02.663Z,36.63
2019-04-14T05:03:05.724Z,35.55
2019-04-14T05:04:09.053Z,36.28
2019-04-14T05:05:47.914Z,35.70
2019-04-14T05:06:57.028Z,36.05
2019-04-14T05:08:00.028Z,35.50
2019-04-14T05:09:08.442Z,34.48
2019-04-14T05:10:37.138Z,35.75
2019-04-14T05:11:44.802Z,36.00
2019-04-14T05:13:22.666Z,34.88
2019-04-14T05:14:33.014Z,35.30
2019-04-14T05:15:47.305Z,34.20
2019-04-14T05:16:50.763Z,35.90
2019-04-14T05:17:53.780Z,35.95
2019-04-14T05:19:10.093Z,36.30
2019-04-14T05:20:00.994Z,34.75
2019-04-14T05:21:06.401Z,34.85
2019-04-14T05:22:09.282Z,36.15
2019-04-14T05:23:12.621Z,35.75
2019-04-14T05:24:15.754Z,35.33
2019-04-14T05:25:19.008Z,33.95
2019-04-14T05:26:22.087Z,35.80
2019-04-14T05:27:25.400Z,34.48
2019-04-14T05:28:28.844Z,34.03
2019-04-14T05:29:31.859Z,34.98
2019-04-14T05:30:35.011Z,33.73
2019-04-14T05:31:38.272Z,34.80
2019-04-14T05:32:41.319Z,34.50
2019-04-14T05:33:44.767Z,35.43
2019-04-14T05:34:47.901Z,33.78
2019-04-14T05:35:50.931Z,35.03
2019-04-14T05:36:54.201Z,35.33
2019-04-14T05:37:57.295Z,36.60
2019-04-14T05:39:00.291Z,35.05
2019-04-14T05:40:03.777Z,34.78
2019-04-14T05:41:06.975Z,33.80
2019-04-14T05:42:14.819Z,35.40
2019-04-14T05:43:26.473Z,35.52
2019-04-14T05:44:18.682Z,32.33
2019-04-14T05:45:21.998Z,33.53
2019-04-14T05:46:25.248Z,34.40
2019-04-14T05:47:28.325Z,33.90
2019-04-14T05:48:31.490Z,32.95
2019-04-14T05:49:41.445Z,34.03
2019-04-14T05:50:38.645Z,32.90
2019-04-14T05:51:41.590Z,34.67
2019-04-14T05:52:44.734Z,32.65
2019-04-14T05:53:48.053Z,33.50
2019-04-14T05:54:51.509Z,34.20
2019-04-14T05:55:55.161Z,33.35
2019-04-14T05:56:58.002Z,32.75
2019-04-14T05:58:01.426Z,32.80
2019-04-14T05:59:04.415Z,33.50
2019-04-14T06:00:10.213Z,33.25
2019-04-14T06:01:13.809Z,33.10
2019-04-14T06:02:16.517Z,32.40
2019-04-14T06:03:19.162Z,32.50
2019-04-14T06:04:22.187Z,32.38
2019-04-14T06:05:25.328Z,33.30
2019-04-14T06:06:28.168Z,33.85
2019-04-14T06:07:30.809Z,32.05
2019-04-14T06:08:33.459Z,32.90
2019-04-14T06:09:36.119Z,33.02
2019-04-14T06:10:38.850Z,32.30
2019-04-14T06:11:41.628Z,32.73
2019-04-14T06:12:44.287Z,33.40
2019-04-14T06:13:46.936Z,30.90
2019-04-14T06:14:49.580Z,31.95
2019-04-14T06:15:52.294Z,32.20
2019-04-14T06:16:55.055Z,31.62
2019-04-14T06:17:57.693Z,33.48
2019-04-14T06:19:00.381Z,32.08
2019-04-14T06:20:03.291Z,30.97
2019-04-14T06:21:05.983Z,31.00
2019-04-14T06:22:08.689Z,32.17
2019-04-14T06:23:11.423Z,31.77
2019-04-14T06:24:14.073Z,32.83
2019-04-14T06:25:16.755Z,31.52
2019-04-14T06:26:19.401Z,31.97
2019-04-14T06:27:22.257Z,33.02
2019-04-14T06:28:24.958Z,32.83
2019-04-14T06:29:27.628Z,31.27
2019-04-14T06:30:49.724Z,31.30
2019-04-14T06:31:59.257Z,31.95
2019-04-14T06:33:06.921Z,30.23
2019-04-14T06:34:29.117Z,31.80
2019-04-14T06:35:40.180Z,31.35
2019-04-14T06:37:06.062Z,31.55
2019-04-14T06:38:15.032Z,31.95
2019-04-14T06:39:28.861Z,32.17
2019-04-14T06:40:35.732Z,30.90
2019-04-14T06:41:38.609Z,32.08
2019-04-14T06:42:41.332Z,31.68
2019-04-14T06:43:49.108Z,32.10
2019-04-14T06:44:48.583Z,32.20
2019-04-14T06:45:51.312Z,31.40
2019-04-14T06:46:54.044Z,31.60
2019-04-14T06:47:56.685Z,31.82
2019-04-14T06:48:59.393Z,30.80
2019-04-14T06:50:02.086Z,31.97
2019-04-14T06:51:04.800Z,31.65
2019-04-14T06:52:07.482Z,32.90
2019-04-14T06:53:10.235Z,31.55
2019-04-14T06:54:12.962Z,32.58
2019-04-14T06:55:15.628Z,32.53
2019-04-14T06:56:18.356Z,33.10
2019-04-14T06:57:22.208Z,33.67
2019-04-14T06:58:24.853Z,33.05
2019-04-14T06:59:27.581Z,31.02
2019-04-14T07:00:30.265Z,34.30
2019-04-14T07:01:32.963Z,32.55
2019-04-14T07:02:35.654Z,32.90
2019-04-14T07:03:38.346Z,34.13
2019-04-14T07:04:41.046Z,32.08
2019-04-14T07:05:44.130Z,32.40
2019-04-14T07:06:46.770Z,33.33
2019-04-14T07:07:56.796Z,32.38
2019-04-14T07:08:53.892Z,31.42
2019-04-14T07:09:56.573Z,33.55
2019-04-14T07:10:59.244Z,31.70
2019-04-14T07:12:01.966Z,33.60
2019-04-14T07:13:04.881Z,33.58
2019-04-14T07:14:07.525Z,31.50
2019-04-14T07:15:10.314Z,32.78
2019-04-14T07:16:13.042Z,32.65
2019-04-14T07:17:15.676Z,33.73
2019-04-14T07:18:18.331Z,32.30
2019-04-14T07:19:21.319Z,30.10
2019-04-14T07:20:24.081Z,30.48
2019-04-14T07:21:26.767Z,31.27
2019-04-14T07:22:29.465Z,31.02
2019-04-14T07:23:32.130Z,32.75
2019-04-14T07:24:34.887Z,32.88
2019-04-14T07:25:37.590Z,32.65
2019-04-14T07:26:40.484Z,31.93
2019-04-14T07:27:43.168Z,31.50
2019-04-14T07:28:56.236Z,31.50
2019-04-14T07:29:58.253Z,31.27
2019-04-14T07:31:20.401Z,30.90
2019-04-14T07:32:42.496Z,30.02
2019-04-14T07:34:07.157Z,30.10
2019-04-14T07:35:34.964Z,29.87
2019-04-14T07:37:14.877Z,31.05
2019-04-14T07:38:22.133Z,30.50
2019-04-14T07:39:37.352Z,31.17
2019-04-14T07:41:05.062Z,32.53
2019-04-14T07:42:27.336Z,29.05
2019-04-14T07:43:41.920Z,30.62
2019-04-14T07:45:01.863Z,29.77
2019-04-14T07:46:29.700Z,29.30
2019-04-14T07:47:36.829Z,29.80
2019-04-14T07:48:49.278Z,30.08
2019-04-14T07:50:16.979Z,29.75
2019-04-14T07:51:33.597Z,28.30
2019-04-14T07:53:04.391Z,29.18
2019-04-14T07:54:21.905Z,28.23
2019-04-14T07:55:59.088Z,28.45
2019-04-14T07:57:16.591Z,27.20
2019-04-14T07:58:36.350Z,26.75
2019-04-14T07:59:54.789Z,27.05
2019-04-14T08:01:02.465Z,27.42
2019-04-14T08:02:19.188Z,26.80
2019-04-14T08:03:31.712Z,26.65
2019-04-14T08:04:37.740Z,26.10
2019-04-14T08:05:40.674Z,27.55
2019-04-14T08:06:48.980Z,27.42
2019-04-14T08:07:51.684Z,27.25
2019-04-14T08:08:54.359Z,25.27
2019-04-14T08:09:57.080Z,22.17
2019-04-14T08:10:59.741Z,25.10
2019-04-14T08:12:02.412Z,23.22
2019-04-14T08:13:05.121Z,22.10
2019-04-14T08:14:07.809Z,20.50
2019-04-14T08:15:10.801Z,21.50
2019-04-14T08:16:13.493Z,21.20
2019-04-14T08:17:16.166Z,20.70
2019-04-14T08:18:19.197Z,22.05
2019-04-14T08:19:21.973Z,21.77
2019-04-14T08:20:27.829Z,20.15
2019-04-14T08:21:29.294Z,21.00
2019-04-14T08:22:31.965Z,21.07
2019-04-14T08:23:34.622Z,20.35
2019-04-14T08:24:37.285Z,20.57
2019-04-14T08:25:39.984Z,19.57
2019-04-14T08:26:42.647Z,19.82
2019-04-14T08:27:45.301Z,21.57
2019-04-14T08:28:48.022Z,20.37
2019-04-14T08:29:50.694Z,21.10
2019-04-14T08:30:53.420Z,20.20
2019-04-14T08:31:56.100Z,20.77
2019-04-14T08:33:00.925Z,22.20
2019-04-14T08:34:03.797Z,21.48
2019-04-14T08:35:06.757Z,22.22
2019-04-14T08:36:09.532Z,20.97
2019-04-14T08:37:12.206Z,20.90
2019-04-14T08:38:14.963Z,20.75
2019-04-14T08:39:17.628Z,22.17
2019-04-14T08:40:20.296Z,20.72
2019-04-14T08:41:23.025Z,21.82
2019-04-14T08:42:43.699Z,19.87
2019-04-14T08:43:56.007Z,22.00
2019-04-14T08:45:01.367Z,21.60
2019-04-14T08:46:18.993Z,20.97
2019-04-14T08:47:42.791Z,21.12
2019-04-14T08:48:47.785Z,21.68
2019-04-14T08:49:53.446Z,21.77
2019-04-14T08:51:21.535Z,20.27
2019-04-14T08:52:29.865Z,20.60
2019-04-14T08:53:43.604Z,20.12
2019-04-14T08:55:01.865Z,19.57
2019-04-14T08:56:27.848Z,20.23
2019-04-14T08:57:58.573Z,20.77
2019-04-14T08:59:18.913Z,19.70
2019-04-14T09:00:35.873Z,21.70
2019-04-14T09:01:57.978Z,20.80
2019-04-14T09:03:21.700Z,20.90
2019-04-14T09:04:36.234Z,19.80
2019-04-14T09:05:46.200Z,20.12
2019-04-14T09:07:01.453Z,19.48
2019-04-14T09:08:09.600Z,20.72
2019-04-14T09:09:24.736Z,17.42
2019-04-14T09:10:30.233Z,17.27
2019-04-14T09:11:37.615Z,16.82
2019-04-14T09:12:41.204Z,16.95
2019-04-14T09:13:44.158Z,17.30
2019-04-14T09:14:56.697Z,17.32
2019-04-14T09:15:51.458Z,17.15
2019-04-14T09:16:54.205Z,16.97
2019-04-14T09:17:56.862Z,17.37
2019-04-14T09:19:07.640Z,16.20
2019-04-14T09:20:04.902Z,17.00
2019-04-14T09:21:07.874Z,17.67
2019-04-14T09:22:10.551Z,17.77
2019-04-14T09:23:13.217Z,17.55
2019-04-14T09:24:15.900Z,17.07
2019-04-14T09:25:18.589Z,16.85
2019-04-14T09:26:21.300Z,15.95
2019-04-14T09:27:23.942Z,17.07
2019-04-14T09:28:26.673Z,16.80
2019-04-14T09:29:29.360Z,16.65
2019-04-14T09:30:32.057Z,16.35
2019-04-14T09:31:34.773Z,17.15
2019-04-14T09:32:37.537Z,16.10
2019-04-14T09:33:40.190Z,20.00
2019-04-14T09:34:42.857Z,16.50
2019-04-14T09:35:45.529Z,16.15
2019-04-14T09:36:48.345Z,17.98
2019-04-14T09:37:50.989Z,21.33
2019-04-14T09:38:53.745Z,19.05
2019-04-14T09:39:56.664Z,15.63
2019-04-14T09:40:59.795Z,18.17
2019-04-14T09:42:02.547Z,15.40
2019-04-14T09:43:05.289Z,17.12
2019-04-14T09:44:07.959Z,15.72
2019-04-14T09:45:10.960Z,15.38
2019-04-14T09:46:13.648Z,15.93
2019-04-14T09:47:16.448Z,15.83
2019-04-14T09:48:19.060Z,15.50
2019-04-14T09:49:21.761Z,16.60
2019-04-14T09:50:24.405Z,15.55
2019-04-14T09:51:27.118Z,16.73
2019-04-14T09:52:29.805Z,15.55
2019-04-14T09:53:32.451Z,16.20
2019-04-14T09:54:35.124Z,16.00
2019-04-14T09:55:37.825Z,15.75
2019-04-14T09:56:40.474Z,15.68
2019-04-14T09:57:43.234Z,15.80
2019-04-14T09:58:46.133Z,31.87
2019-04-14T09:59:48.768Z,38.38
2019-04-14T10:00:51.422Z,32.50
2019-04-14T10:01:54.294Z,25.15
2019-04-14T10:02:56.997Z,19.85
2019-04-14T10:03:59.735Z,17.10
2019-04-14T10:05:02.404Z,16.23
2019-04-14T10:06:05.065Z,15.83
2019-04-14T10:07:07.763Z,17.60
2019-04-14T10:08:10.506Z,16.40
2019-04-14T10:09:13.169Z,17.37
2019-04-14T10:10:16.172Z,16.82
2019-04-14T10:11:18.992Z,16.37
2019-04-14T10:12:21.739Z,16.45
2019-04-14T10:13:24.429Z,17.45
2019-04-14T10:14:27.092Z,16.10
2019-04-14T10:15:29.777Z,16.30
2019-04-14T10:16:32.477Z,17.10
2019-04-14T10:17:35.138Z,16.77
2019-04-14T10:18:37.844Z,17.60
2019-04-14T10:19:40.524Z,16.20
2019-04-14T10:20:43.173Z,17.20
2019-04-14T10:21:45.845Z,16.80
2019-04-14T10:22:48.580Z,17.15
2019-04-14T10:23:51.313Z,21.48
2019-04-14T10:24:53.974Z,19.07
2019-04-14T10:25:57.001Z,17.65
2019-04-14T10:26:59.723Z,16.12
2019-04-14T10:28:02.507Z,16.30
2019-04-14T10:29:05.450Z,15.68
2019-04-14T10:30:08.244Z,16.30
2019-04-14T10:31:10.963Z,15.45
2019-04-14T10:32:13.706Z,15.85
2019-04-14T10:33:16.373Z,16.40
2019-04-14T10:34:19.154Z,15.88
2019-04-14T10:35:21.822Z,17.23
2019-04-14T10:36:24.472Z,17.25
2019-04-14T10:37:27.213Z,16.37
2019-04-14T10:38:29.827Z,16.25
2019-04-14T10:39:32.834Z,16.07
2019-04-14T10:40:35.744Z,16.15
2019-04-14T10:41:38.415Z,16.62
2019-04-14T10:42:41.076Z,16.52
2019-04-14T10:43:43.639Z,19.12
2019-04-14T10:44:46.877Z,17.87
2019-04-14T10:45:49.602Z,17.60
2019-04-14T10:46:52.265Z,17.48
2019-04-14T10:47:54.901Z,17.12
2019-04-14T10:48:57.555Z,16.75
2019-04-14T10:50:00.277Z,15.28
2019-04-14T10:51:03.026Z,17.67
2019-04-14T10:52:05.786Z,18.25
2019-04-14T10:53:08.482Z,17.12
2019-04-14T10:54:11.138Z,20.27
2019-04-14T10:55:13.883Z,17.00
2019-04-14T10:56:16.813Z,18.15
2019-04-14T10:57:19.474Z,108.72
2019-04-14T10:58:22.173Z,17.82
2019-04-14T10:59:24.819Z,18.57
2019-04-14T11:00:27.615Z,17.62
2019-04-14T11:01:30.297Z,16.55
2019-04-14T11:02:33.937Z,18.02
2019-04-14T11:03:36.669Z,18.40
2019-04-14T11:04:39.339Z,18.02
2019-04-14T11:05:56.065Z,18.10
2019-04-14T11:07:07.279Z,17.23
2019-04-14T11:08:09.921Z,18.60
2019-04-14T11:09:14.522Z,18.92
2019-04-14T11:10:17.387Z,18.85
2019-04-14T11:11:20.094Z,18.60
2019-04-14T11:12:22.760Z,18.73
2019-04-14T11:13:25.525Z,17.98
2019-04-14T11:14:28.193Z,18.98
2019-04-14T11:15:30.894Z,18.60
2019-04-14T11:16:36.256Z,18.12
2019-04-14T11:17:38.969Z,18.10
2019-04-14T11:18:41.650Z,18.50
2019-04-14T11:19:44.344Z,18.77
2019-04-14T11:20:47.073Z,18.27
2019-04-14T11:21:49.881Z,20.12
2019-04-14T11:23:02.736Z,19.40
2019-04-14T11:23:57.032Z,19.45
2019-04-14T11:24:59.808Z,19.75
2019-04-14T11:26:02.641Z,19.07
2019-04-14T11:27:05.357Z,18.98
2019-04-14T11:28:08.259Z,19.90
2019-04-14T11:29:10.909Z,19.07
2019-04-14T11:30:17.938Z,19.80
2019-04-14T11:31:58.010Z,21.37
2019-04-14T11:33:18.745Z,19.62
2019-04-14T11:34:22.927Z,18.70
2019-04-14T11:35:33.258Z,18.45
2019-04-14T11:36:53.576Z,19.98
2019-04-14T11:38:30.441Z,18.73
2019-04-14T11:39:33.104Z,19.35
2019-04-14T11:40:40.650Z,18.92
2019-04-14T11:41:43.418Z,19.82
2019-04-14T11:42:52.240Z,18.67
2019-04-14T11:43:50.699Z,18.55
2019-04-14T11:44:53.381Z,18.25
2019-04-14T11:45:56.050Z,18.45
2019-04-14T11:46:58.841Z,18.20
2019-04-14T11:48:01.666Z,17.95
2019-04-14T11:49:04.721Z,17.70
2019-04-14T11:50:07.490Z,19.10
2019-04-14T11:51:10.424Z,17.40
2019-04-14T11:52:14.394Z,19.67
2019-04-14T11:53:17.062Z,17.05
2019-04-14T11:54:19.931Z,16.77
2019-04-14T11:55:22.702Z,18.80
2019-04-14T11:56:25.395Z,19.25
2019-04-14T11:57:28.130Z,20.17
2019-04-14T11:58:30.937Z,18.62
2019-04-14T11:59:45.024Z,20.85
2019-04-14T12:01:14.562Z,20.32
2019-04-14T12:02:25.610Z,19.75
2019-04-14T12:03:50.800Z,19.92
2019-04-14T12:05:03.165Z,20.45
2019-04-14T12:06:25.289Z,19.70
2019-04-14T12:07:47.430Z,19.37
2019-04-14T12:08:55.450Z,20.82
2019-04-14T12:10:10.267Z,21.42
2019-04-14T12:11:12.928Z,21.23
2019-04-14T12:12:15.700Z,20.82
2019-04-14T12:13:18.405Z,20.48
2019-04-14T12:14:21.050Z,21.37
2019-04-14T12:15:23.773Z,21.05
2019-04-14T12:16:26.516Z,19.30
2019-04-14T12:17:29.319Z,19.77
2019-04-14T12:18:32.390Z,20.95
2019-04-14T12:19:35.082Z,19.98
2019-04-14T12:20:37.774Z,18.73
2019-04-14T12:21:40.449Z,19.80
2019-04-14T12:22:43.112Z,20.48
2019-04-14T12:23:45.796Z,18.50
2019-04-14T12:24:48.550Z,21.10
2019-04-14T12:25:51.301Z,18.85
2019-04-14T12:26:53.972Z,19.48
2019-04-14T12:27:57.860Z,20.52
2019-04-14T12:29:03.058Z,20.32
2019-04-14T12:30:09.564Z,21.05
2019-04-14T12:31:13.123Z,20.20
2019-04-14T12:32:17.219Z,21.15
2019-04-14T12:33:19.885Z,20.85
2019-04-14T12:34:22.561Z,20.32
2019-04-14T12:35:25.282Z,19.32
2019-04-14T12:36:28.138Z,19.62
2019-04-14T12:37:30.875Z,19.27
2019-04-14T12:38:33.611Z,19.23
2019-04-14T12:39:36.272Z,17.27
2019-04-14T12:40:40.182Z,21.55
2019-04-14T12:41:47.294Z,18.90
2019-04-14T12:42:57.733Z,16.32
2019-04-14T12:44:25.784Z,16.60
2019-04-14T12:45:47.963Z,15.65
2019-04-14T12:47:06.537Z,15.65
2019-04-14T12:48:16.165Z,17.95
2019-04-14T12:49:22.827Z,15.20
2019-04-14T12:50:34.803Z,15.05
2019-04-14T12:51:55.210Z,14.80
2019-04-14T12:52:58.239Z,12.73
2019-04-14T12:54:00.878Z,12.98
2019-04-14T12:55:03.969Z,11.85
2019-04-14T12:56:06.641Z,12.25
2019-04-14T12:57:09.309Z,11.20
2019-04-14T12:58:12.705Z,10.45
2019-04-14T12:59:22.941Z,11.03
2019-04-14T13:00:45.555Z,10.25
2019-04-14T13:02:13.483Z,10.45
2019-04-14T13:03:16.264Z,8.53
2019-04-14T13:04:18.918Z,9.90
2019-04-14T13:05:21.643Z,8.98
2019-04-14T13:06:24.300Z,9.55
2019-04-14T13:07:27.137Z,10.80
2019-04-14T13:08:29.842Z,9.65
2019-04-14T13:09:32.594Z,10.82
2019-04-14T13:10:35.699Z,9.30
2019-04-14T13:11:38.380Z,9.68
2019-04-14T13:12:41.120Z,9.28
2019-04-14T13:13:43.837Z,9.13
2019-04-14T13:14:46.533Z,8.80
2019-04-14T13:15:49.297Z,9.18
2019-04-14T13:16:51.922Z,9.65
2019-04-14T13:17:54.570Z,9.08
2019-04-14T13:18:57.295Z,9.60
2019-04-14T13:20:00.013Z,9.85
2019-04-14T13:21:02.681Z,9.30
2019-04-14T13:22:05.393Z,10.30
2019-04-14T13:23:08.053Z,14.05
2019-04-14T13:24:10.814Z,11.70
2019-04-14T13:25:13.619Z,12.45
2019-04-14T13:26:16.301Z,10.50
2019-04-14T13:27:19.021Z,9.23
2019-04-14T13:28:21.697Z,10.18
2019-04-14T13:29:24.517Z,9.90
2019-04-14T13:30:30.513Z,9.35
2019-04-14T13:31:33.165Z,8.98
2019-04-14T13:32:36.514Z,9.60
2019-04-14T13:33:39.247Z,9.98
2019-04-14T13:34:41.983Z,10.48
2019-04-14T13:35:44.642Z,9.58
2019-04-14T13:36:47.373Z,8.85
2019-04-14T13:37:50.069Z,11.45
2019-04-14T13:38:52.922Z,9.73
2019-04-14T13:39:55.632Z,9.93
2019-04-14T13:40:58.338Z,10.08
2019-04-14T13:42:01.084Z,11.93
2019-04-14T13:43:03.743Z,14.93
2019-04-14T13:44:06.460Z,15.63
2019-04-14T13:45:09.297Z,16.10
2019-04-14T13:46:11.993Z,16.00
2019-04-14T13:47:14.680Z,15.83
2019-04-14T13:48:17.350Z,16.10
2019-04-14T13:49:21.044Z,17.67
2019-04-14T13:50:23.744Z,16.20
2019-04-14T13:51:26.382Z,16.75
2019-04-14T13:52:30.924Z,17.25
2019-04-14T13:53:33.493Z,16.23
2019-04-14T13:54:36.148Z,16.12
2019-04-14T13:55:38.898Z,17.82
2019-04-14T13:56:41.582Z,16.60
2019-04-14T13:57:44.281Z,16.30
2019-04-14T13:58:46.930Z,15.93
2019-04-14T13:59:49.579Z,16.48
2019-04-14T14:00:52.363Z,16.27
2019-04-14T14:01:54.993Z,16.95
2019-04-14T14:02:58.034Z,17.37
2019-04-14T14:04:00.691Z,17.12
2019-04-14T14:05:03.485Z,16.82
2019-04-14T14:06:06.271Z,16.30
2019-04-14T14:07:09.040Z,17.60
2019-04-14T14:08:11.757Z,16.37
2019-04-14T14:09:14.785Z,16.25
2019-04-14T14:10:17.776Z,16.32
2019-04-14T14:11:51.629Z,16.02
2019-04-14T14:13:06.240Z,16.37
2019-04-14T14:14:16.077Z,16.50
2019-04-14T14:15:32.537Z,16.82
2019-04-14T14:16:57.541Z,15.95
2019-04-14T14:18:10.462Z,15.63
2019-04-14T14:19:32.605Z,16.35
2019-04-14T14:21:03.644Z,16.05
2019-04-14T14:22:20.403Z,15.23
2019-04-14T14:23:35.977Z,15.95
2019-04-14T14:24:47.705Z,15.93
2019-04-14T14:25:54.315Z,16.77
2019-04-14T14:26:56.998Z,15.88
2019-04-14T14:27:59.743Z,17.48